Time,TemperatureF,DewpointF,PressureIn,WindDirection,WindDirectionDegrees,WindSpeedMPH,WindSpeedGustMPH,Humidity,HourlyPrecipIn,Conditions,Clouds,dailyrainin,SoftwareType,DateUTC
2013-05-29 00:02:00,60.0,60.0,-100.00,SSW,200,2.0,4.0,99,-99.99,,,-99.99,,2013-05-29 05:02:00,
2013-05-29 00:12:00,60.0,60.0,-100.00,SSW,200,2.0,4.0,99,-99.99,,,-99.99,,2013-05-29 05:12:00,
2013-05-29 00:22:00,60.0,60.0,-100.00,SSW,200,2.0,4.0,99,-99.99,,,-99.99,,2013-05-29 05:22:00,
2013-05-29 00:31:00,60.0,60.0,-100.00,SSW,200,0.0,1.0,99,-99.99,,,-99.99,,2013-05-29 05:31:00,
2013-05-29 00:52:00,60.0,60.0,-100.00,SSW,200,0.0,1.0,99,-99.99,,,-99.99,,2013-05-29 05:52:00,
2013-05-29 01:01:00,60.0,60.0,-100.00,SSW,200,0.0,1.0,99,-99.99,,,-99.99,,2013-05-29 06:01:00,
2013-05-29 01:12:00,60.0,60.0,-100.00,SSW,200,0.0,1.0,99,-99.99,,,-99.99,,2013-05-29 06:12:00,
2013-05-29 01:21:00,60.0,60.0,-100.00,SSW,200,0.0,1.0,99,-99.99,,,-99.99,,2013-05-29 06:21:00,
2013-05-29 01:31:00,59.0,59.0,-100.00,SSW,200,0.0,2.0,99,-99.99,,,-99.99,,2013-05-29 06:31:00,
2013-05-29 01:52:00,59.0,59.0,-100.00,SSW,200,0.0,2.0,99,-99.99,,,-99.99,,2013-05-29 06:52:00,
2013-05-29 02:01:00,59.0,59.0,-100.00,SSW,200,0.0,2.0,99,-99.99,,,-99.99,,2013-05-29 07:01:00,
2013-05-29 02:11:00,59.0,59.0,-100.00,SSW,200,0.0,2.0,99,-99.99,,,-99.99,,2013-05-29 07:11:00,
2013-05-29 02:21:00,59.0,59.0,-100.00,SSW,200,0.0,2.0,99,-99.99,,,-99.99,,2013-05-29 07:21:00,
2013-05-29 02:31:00,59.0,59.0,-100.00,SSW,200,1.0,2.0,99,-99.99,,,-99.99,,2013-05-29 07:31:00,
2013-05-29 02:52:00,59.0,59.0,-100.00,SSW,200,1.0,2.0,99,-99.99,,,-99.99,,2013-05-29 07:52:00,
2013-05-29 03:02:00,59.0,59.0,-100.00,SSW,200,1.0,2.0,99,-99.99,,,-99.99,,2013-05-29 08:02:00,
2013-05-29 03:11:00,59.0,59.0,-100.00,SSW,200,1.0,2.0,99,-99.99,,,-99.99,,2013-05-29 08:11:00,
2013-05-29 03:22:00,59.0,59.0,-100.00,SSW,200,1.0,2.0,99,-99.99,,,-99.99,,2013-05-29 08:22:00,
2013-05-29 03:32:00,59.0,59.0,-100.00,SSW,200,1.0,4.0,99,-99.99,,,-99.99,,2013-05-29 08:32:00,
2013-05-29 03:52:00,59.0,59.0,-100.00,SSW,200,1.0,4.0,99,-99.99,,,-99.99,,2013-05-29 08:52:00,
2013-05-29 04:01:00,59.0,59.0,-100.00,SSW,200,1.0,4.0,99,-99.99,,,-99.99,,2013-05-29 09:01:00,
2013-05-29 04:11:00,59.0,59.0,-100.00,SSW,200,1.0,4.0,99,-99.99,,,-99.99,,2013-05-29 09:11:00,
2013-05-29 04:21:00,59.0,59.0,-100.00,SSW,200,1.0,4.0,99,-99.99,,,-99.99,,2013-05-29 09:21:00,
2013-05-29 04:30:00,58.0,58.0,-100.00,SSW,200,0.0,4.0,99,-99.99,,,-99.99,,2013-05-29 09:30:00,
2013-05-29 04:52:00,58.0,58.0,-100.00,SSW,200,0.0,4.0,99,-99.99,,,-99.99,,2013-05-29 09:52:00,
2013-05-29 05:03:00,58.0,58.0,-100.00,SSW,200,0.0,4.0,99,-99.99,,,-99.99,,2013-05-29 10:03:00,
2013-05-29 05:12:00,58.0,58.0,-100.00,SSW,200,0.0,4.0,99,-99.99,,,-99.99,,2013-05-29 10:12:00,
2013-05-29 05:22:00,58.0,58.0,-100.00,SSW,200,0.0,4.0,99,-99.99,,,-99.99,,2013-05-29 10:22:00,
2013-05-29 05:31:00,58.0,57.0,-100.00,SSW,200,0.0,3.0,99,-99.99,,,-99.99,,2013-05-29 10:31:00,
2013-05-29 05:53:00,58.0,57.0,-100.00,SSW,200,0.0,3.0,99,-99.99,,,-99.99,,2013-05-29 10:53:00,
2013-05-29 06:02:00,58.0,57.0,-100.00,SSW,200,0.0,3.0,99,-99.99,,,-99.99,,2013-05-29 11:02:00,
2013-05-29 06:12:00,58.0,57.0,-100.00,SSW,200,0.0,3.0,99,-99.99,,,-99.99,,2013-05-29 11:12:00,
2013-05-29 06:22:00,58.0,57.0,-100.00,SSW,200,0.0,3.0,99,-99.99,,,-99.99,,2013-05-29 11:22:00,
2013-05-29 06:30:00,59.0,59.0,-100.00,SSW,200,1.0,3.0,99,-99.99,,,-99.99,,2013-05-29 11:30:00,
2013-05-29 06:52:00,59.0,59.0,-100.00,SSW,200,1.0,3.0,99,-99.99,,,-99.99,,2013-05-29 11:52:00,
2013-05-29 07:01:00,59.0,59.0,-100.00,SSW,200,1.0,3.0,99,-99.99,,,-99.99,,2013-05-29 12:01:00,
2013-05-29 07:11:00,59.0,59.0,-100.00,SSW,200,1.0,3.0,99,-99.99,,,-99.99,,2013-05-29 12:11:00,
2013-05-29 07:22:00,59.0,59.0,-100.00,SSW,200,1.0,3.0,99,-99.99,,,-99.99,,2013-05-29 12:22:00,
2013-05-29 07:30:00,61.0,61.0,-100.00,SSW,200,3.0,5.0,99,-99.99,,,-99.99,,2013-05-29 12:30:00,
2013-05-29 07:52:00,61.0,61.0,-100.00,SSW,200,3.0,5.0,99,-99.99,,,-99.99,,2013-05-29 12:52:00,
2013-05-29 08:02:00,61.0,61.0,-100.00,SSW,200,3.0,5.0,99,-99.99,,,-99.99,,2013-05-29 13:02:00,
2013-05-29 08:11:00,61.0,61.0,-100.00,SSW,200,3.0,5.0,99,-99.99,,,-99.99,,2013-05-29 13:11:00,
2013-05-29 08:21:00,61.0,61.0,-100.00,SSW,200,3.0,5.0,99,-99.99,,,-99.99,,2013-05-29 13:21:00,
2013-05-29 08:30:00,65.0,65.0,-100.00,SSW,200,4.0,7.0,99,-99.99,,,-99.99,,2013-05-29 13:30:00,
2013-05-29 08:53:00,65.0,65.0,-100.00,SSW,200,4.0,7.0,99,-99.99,,,-99.99,,2013-05-29 13:53:00,
2013-05-29 09:02:00,65.0,65.0,-100.00,SSW,200,4.0,7.0,99,-99.99,,,-99.99,,2013-05-29 14:02:00,
2013-05-29 09:11:00,65.0,65.0,-100.00,SSW,200,4.0,7.0,99,-99.99,,,-99.99,,2013-05-29 14:11:00,
2013-05-29 09:21:00,65.0,65.0,-100.00,SSW,200,4.0,7.0,99,-99.99,,,-99.99,,2013-05-29 14:21:00,
2013-05-29 09:31:00,70.0,65.0,-100.00,SSW,200,2.0,4.0,84,-99.99,,,-99.99,,2013-05-29 14:31:00,
2013-05-29 09:52:00,70.0,65.0,-100.00,SSW,200,2.0,4.0,84,-99.99,,,-99.99,,2013-05-29 14:52:00,
2013-05-29 10:01:00,70.0,65.0,-100.00,SSW,200,2.0,4.0,84,-99.99,,,-99.99,,2013-05-29 15:01:00,
2013-05-29 10:11:00,70.0,65.0,-100.00,SSW,200,2.0,4.0,84,-99.99,,,-99.99,,2013-05-29 15:11:00,
2013-05-29 10:21:00,70.0,65.0,-100.00,SSW,200,2.0,4.0,84,-99.99,,,-99.99,,2013-05-29 15:21:00,
2013-05-29 10:30:00,76.0,66.0,-100.00,SSW,200,2.0,7.0,72,-99.99,,,-99.99,,2013-05-29 15:30:00,
2013-05-29 10:53:00,76.0,66.0,-100.00,SSW,200,2.0,7.0,72,-99.99,,,-99.99,,2013-05-29 15:53:00,
2013-05-29 11:03:00,76.0,66.0,-100.00,SSW,200,2.0,7.0,72,-99.99,,,-99.99,,2013-05-29 16:03:00,
2013-05-29 11:12:00,76.0,66.0,-100.00,SSW,200,2.0,7.0,72,-99.99,,,-99.99,,2013-05-29 16:12:00,
2013-05-29 11:22:00,76.0,66.0,-100.00,SSW,200,2.0,7.0,72,-99.99,,,-99.99,,2013-05-29 16:22:00,
2013-05-29 11:31:00,80.0,64.0,-100.00,SSW,200,7.0,12.0,58,-99.99,,,-99.99,,2013-05-29 16:31:00,
2013-05-29 11:52:00,80.0,64.0,-100.00,SSW,200,7.0,12.0,58,-99.99,,,-99.99,,2013-05-29 16:52:00,
2013-05-29 12:02:00,80.0,64.0,-100.00,SSW,200,7.0,12.0,58,-99.99,,,-99.99,,2013-05-29 17:02:00,
2013-05-29 12:12:00,80.0,64.0,-100.00,SSW,200,7.0,12.0,58,-99.99,,,-99.99,,2013-05-29 17:12:00,
2013-05-29 12:22:00,80.0,64.0,-100.00,SSW,200,7.0,12.0,58,-99.99,,,-99.99,,2013-05-29 17:22:00,
2013-05-29 18:31:00,70.0,62.0,-100.00,SSW,200,9.0,16.0,76,-99.99,,,-99.99,,2013-05-29 23:31:00,
2013-05-29 19:52:00,65.0,65.0,-100.00,SSW,200,4.0,10.0,97,-99.99,,,-99.99,,2013-05-30 00:52:00,
2013-05-29 20:01:00,65.0,65.0,-100.00,SSW,200,4.0,10.0,97,-99.99,,,-99.99,,2013-05-30 01:01:00,
2013-05-29 20:11:00,65.0,65.0,-100.00,SSW,200,4.0,10.0,97,-99.99,,,-99.99,,2013-05-30 01:11:00,
2013-05-29 20:21:00,65.0,65.0,-100.00,SSW,200,4.0,10.0,97,-99.99,,,-99.99,,2013-05-30 01:21:00,
2013-05-29 20:30:00,65.0,64.0,-100.00,SSW,200,2.0,6.0,99,-99.99,,,-99.99,,2013-05-30 01:30:00,
2013-05-29 20:52:00,65.0,64.0,-100.00,SSW,200,2.0,6.0,99,-99.99,,,-99.99,,2013-05-30 01:52:00,
2013-05-29 21:01:00,65.0,64.0,-100.00,SSW,200,2.0,6.0,99,-99.99,,,-99.99,,2013-05-30 02:01:00,
2013-05-29 21:11:00,65.0,64.0,-100.00,SSW,200,2.0,6.0,99,-99.99,,,-99.99,,2013-05-30 02:11:00,
2013-05-29 21:21:00,65.0,64.0,-100.00,SSW,200,2.0,6.0,99,-99.99,,,-99.99,,2013-05-30 02:21:00,
2013-05-29 21:30:00,64.0,64.0,-100.00,SSW,200,3.0,6.0,99,-99.99,,,-99.99,,2013-05-30 02:30:00,
2013-05-29 22:02:00,64.0,64.0,-100.00,SSW,200,3.0,6.0,99,-99.99,,,-99.99,,2013-05-30 03:02:00,
2013-05-29 22:11:00,64.0,64.0,-100.00,SSW,200,3.0,6.0,99,-99.99,,,-99.99,,2013-05-30 03:11:00,
2013-05-29 22:21:00,64.0,64.0,-100.00,SSW,200,3.0,6.0,99,-99.99,,,-99.99,,2013-05-30 03:21:00,
2013-05-29 22:31:00,64.0,63.0,-100.00,SSW,200,4.0,8.0,99,-99.99,,,-99.99,,2013-05-30 03:31:00,
2013-05-29 22:53:00,64.0,63.0,-100.00,SSW,200,4.0,8.0,99,-99.99,,,-99.99,,2013-05-30 03:53:00,
2013-05-29 23:03:00,64.0,63.0,-100.00,SSW,200,4.0,8.0,99,-99.99,,,-99.99,,2013-05-30 04:03:00,
2013-05-29 23:13:00,64.0,63.0,-100.00,SSW,200,4.0,8.0,99,-99.99,,,-99.99,,2013-05-30 04:13:00,
2013-05-29 23:23:00,64.0,63.0,-100.00,SSW,200,4.0,8.0,99,-99.99,,,-99.99,,2013-05-30 04:23:00,
2013-05-29 23:30:00,63.0,63.0,-100.00,SSW,200,4.0,7.0,99,-99.99,,,-99.99,,2013-05-30 04:30:00,
2013-05-29 23:53:00,63.0,63.0,-100.00,SSW,200,4.0,7.0,99,-99.99,,,-99.99,,2013-05-30 04:53:00,